Latest Weather Observations for Morawa Airport

IDW60801

Issued at 1:32 pm WST Tuesday 27 January 2015 (issued every 30 minutes, with the page automatically refreshed every 10 minutes)

About weather observations | Map of weather stations | Latest weather observations for WA | Other Formats
Station Details ID: 008296 Name: MORAWA AIRPORT Lat: -29.20 Lon: 116.02 Height: 271.4 m
Data from the previous 72 hours. | See also: Recent months at Morawa Airport
Date/Time
WST
Temp
°C
App
Temp
°C
Dew
Point
Rel
Hum
%
Delta-T
°C
Wind Press
QNH
hPa
Press
MSL
hPa
Rain
since 9 am
mm
Dir
 
Spd
km/h
Gust
km/h
Spd
kts
Gust
kts
27/01:30pm 37.7 34.3 7.6 16 17.2 S 15 30 8 16 1005.5 1003.7 0.0
27/01:00pm 37.1 35.0 9.6 19 16.2 ENE 11 24 6 13 1006.0 1004.1 0.0
27/12:30pm 37.4 35.8 11.4 21 15.7 ENE 11 26 6 14 1006.5 1004.6 0.0
27/12:00pm 36.5 34.1 11.3 22 15.1 E 15 28 8 15 1006.9 1005.0 0.0
27/11:30am 35.3 33.6 12.3 25 13.9 ENE 13 28 7 15 1007.3 1005.5 0.0
27/11:00am 34.7 32.8 13.0 27 13.3 ENE 15 26 8 14 1007.7 1005.9 0.0
27/10:30am 34.3 32.5 13.2 28 12.9 NE 15 24 8 13 1007.8 1006.0 0.0
27/10:00am 33.2 30.4 13.3 30 12.2 NE 20 33 11 18 1008.1 1006.3 0.0
27/09:30am 32.3 29.8 13.5 32 11.5 ENE 19 28 10 15 1008.2 1006.4 0.0
27/09:00am 31.4 28.5 14.1 35 10.6 NE 22 33 12 18 1008.5 1006.7 0.0
27/08:30am 30.3 27.5 14.4 38 9.8 NE 22 35 12 19 1008.6 1006.8 0.0
27/08:00am 29.2 26.5 14.6 41 9.0 NE 22 32 12 17 1008.6 1006.8 0.0
27/07:30am 27.9 25.7 15.9 48 7.5 ENE 22 30 12 16 1008.5 1006.7 0.0
27/07:00am 26.9 25.1 15.9 51 6.8 NE 20 28 11 15 1008.3 1006.5 0.0
27/06:30am 26.1 24.9 16.1 54 6.2 ENE 17 22 9 12 1008.2 1006.4 0.0
27/06:00am 25.1 24.3 16.0 57 5.6 NE 15 20 8 11 1007.8 1006.0 0.0
27/05:30am 25.1 24.3 16.0 57 5.6 NE 15 20 8 11 1007.5 1005.7 0.0
27/05:00am 25.5 24.8 16.4 57 5.7 NE 15 20 8 11 1007.4 1005.6 0.0
27/04:30am 25.8 25.1 16.4 56 5.8 ENE 15 20 8 11 1007.1 1005.2 0.0
27/04:00am 26.1 25.4 16.4 55 6.1 ENE 15 24 8 13 1006.9 1005.0 0.0
27/03:30am 26.3 25.5 16.0 53 6.4 ENE 15 20 8 11 1006.6 1004.7 0.0
27/03:00am 26.6 26.1 15.9 51 6.6 ENE 13 17 7 9 1006.5 1004.6 0.0
27/02:30am 27.0 26.0 15.7 50 7.0 ENE 15 19 8 10 1006.3 1004.4 0.0
27/02:00am 27.4 26.3 15.4 48 7.4 ENE 15 19 8 10 1006.1 1004.2 0.0
27/01:30am 27.7 27.1 14.7 45 7.9 ENE 11 15 6 8 1006.2 1004.3 0.0
27/01:00am 28.2 27.0 14.1 42 8.6 ENE 13 17 7 9 1006.3 1004.4 0.0
27/12:30am 29.0 27.5 13.2 37 9.5 ENE 13 17 7 9 1006.4 1004.5 0.0
27/12:00am 29.8 27.8 12.7 35 10.2 ENE 15 20 8 11 1006.6 1004.7 0.0
 
Date/Time
WST
Temp
°C
App
Temp
°C
Dew
Point
Rel
Hum
%
Delta-T
°C
Wind Press
QNH
hPa
Press
MSL
hPa
Rain
since 9 am
mm
Dir
 
Spd
km/h
Gust
km/h
Spd
kts
Gust
kts
26/11:30pm 30.9 28.5 12.8 33 10.9 NE 17 26 9 14 1006.8 1004.9 0.0
26/11:00pm 31.3 30.1 14.0 35 10.6 NE 13 19 7 10 1006.6 1004.7 0.0
26/10:30pm 32.1 30.1 13.8 33 11.2 NE 17 26 9 14 1006.2 1004.3 0.0
26/10:00pm 33.6 31.0 7.6 20 14.6 E 11 15 6 8 1006.1 1004.2 0.0
26/09:30pm 33.5 30.5 7.5 20 14.5 E 13 19 7 10 1005.8 1003.9 0.0
26/09:00pm 33.6 31.0 7.6 20 14.6 E 11 17 6 9 1005.5 1003.7 0.0
26/08:30pm 34.4 31.0 7.5 19 15.1 ESE 15 19 8 10 1005.2 1003.4 0.0
26/08:00pm 35.1 31.2 7.2 18 15.7 ESE 17 22 9 12 1005.0 1003.2 0.0
26/07:30pm 35.6 31.6 6.8 17 16.1 ESE 17 24 9 13 1004.9 1003.1 0.0
26/07:00pm 36.7 31.0 6.8 16 16.8 ESE 26 35 14 19 1004.4 1002.6 0.0
26/06:30pm 37.7 32.4 6.6 15 17.5 SE 24 33 13 18 1004.1 1002.3 0.0
26/06:00pm 38.5 34.3 7.3 15 17.8 SE 19 33 10 18 1004.0 1002.2 0.0
26/05:30pm 39.0 35.0 6.7 14 18.3 ESE 17 30 9 16 1003.8 1001.9 0.0
26/05:16pm 39.6 35.1 7.1 14 18.6 SE 20 35 11 19 1003.8 1001.9 0.0
26/05:00pm 38.5 36.2 7.3 15 17.8 ENE 9 17 5 9 1004.0 1002.2 0.0
26/04:30pm 39.7 35.6 6.1 13 18.9 SE 17 26 9 14 1004.1 1002.3 0.0
26/04:00pm 38.8 35.1 6.5 14 18.3 SE 15 30 8 16 1004.6 1002.8 0.0
26/03:30pm 39.7 36.0 6.1 13 18.9 E 15 26 8 14 1004.9 1003.1 0.0
26/03:00pm 39.6 35.9 6.1 13 18.9 N 15 52 8 28 1005.1 1003.3 0.0
26/02:59pm 39.7 36.3 6.1 13 18.9 N 13 52 7 28 1004.4 1002.6 0.0
26/02:30pm 38.5 35.3 5.2 13 18.4 E 11 24 6 13 1005.6 1003.8 0.0
26/02:00pm 38.7 34.8 5.4 13 18.5 SE 15 28 8 15 1006.2 1004.3 0.0
26/01:30pm 38.3 35.5 7.1 15 17.7 ESE 11 22 6 12 1006.5 1004.6 0.0
26/01:00pm 37.5 33.7 7.4 16 17.2 NE 17 26 9 14 1007.0 1005.1 0.0
26/12:30pm 38.1 33.8 7.9 16 17.3 ENE 20 30 11 16 1007.5 1005.7 0.0
26/12:00pm 37.1 33.8 8.0 17 16.7 ESE 15 28 8 15 1007.9 1006.1 0.0
26/11:30am 37.2 33.4 8.9 18 16.4 ENE 19 33 10 18 1008.4 1006.6 0.0
26/11:00am 35.6 32.4 8.4 19 15.6 ENE 15 28 8 15 1008.8 1007.0 0.0
26/10:30am 35.3 31.5 8.9 20 15.2 ENE 19 32 10 17 1009.1 1007.3 0.0
26/10:00am 34.1 30.0 8.7 21 14.5 ENE 20 30 11 16 1009.4 1007.6 0.0
26/09:30am 32.9 28.4 8.4 22 13.8 ENE 22 43 12 23 1009.7 1007.8 0.0
26/09:00am 32.4 27.9 8.6 23 13.5 E 22 32 12 17 1010.0 1008.1 0.0
26/08:30am 31.1 26.5 8.2 24 12.8 E 22 35 12 19 1010.1 1008.2 0.0
26/08:00am 29.3 24.0 6.7 24 12.2 ESE 24 30 13 16 1010.3 1008.4 0.0
26/07:30am 28.0 23.3 6.2 25 11.6 ESE 20 28 11 15 1010.5 1008.6 0.0
26/07:00am 26.6 22.4 5.5 26 11.0 ESE 17 26 9 14 1010.5 1008.6 0.0
26/06:30am 25.0 21.1 5.2 28 10.2 SE 15 24 8 13 1010.4 1008.5 0.0
26/06:00am 23.5 19.8 4.5 29 9.5 SE 13 17 7 9 1010.3 1008.4 0.0
26/05:30am 23.5 19.3 4.0 28 9.7 SE 15 19 8 10 1010.1 1008.2 0.0
26/05:00am 23.8 19.7 4.2 28 9.8 SE 15 20 8 11 1009.9 1008.0 0.0
26/04:30am 24.2 20.0 4.0 27 10.1 SE 15 19 8 10 1009.7 1007.8 0.0
26/04:00am 24.6 20.8 3.8 26 10.4 SE 13 20 7 11 1009.4 1007.6 0.0
26/03:30am 25.0 20.3 3.0 24 10.8 SE 17 22 9 12 1009.3 1007.5 0.0
26/03:00am 25.1 20.3 2.5 23 11.1 SE 17 24 9 13 1009.3 1007.5 0.0
26/02:30am 25.6 20.3 1.7 21 11.6 SE 19 26 10 14 1009.3 1007.5 0.0
26/02:00am 25.7 20.7 1.1 20 11.8 SE 17 24 9 13 1009.2 1007.4 0.0
26/01:30am 26.3 20.8 0.9 19 12.2 SE 19 30 10 16 1009.3 1007.5 0.0
26/01:00am 26.7 21.2 0.4 18 12.5 SE 19 26 10 14 1009.7 1007.8 0.0
26/12:30am 27.1 21.1 0.8 18 12.6 SE 22 32 12 17 1009.8 1007.9 0.0
26/12:00am 27.3 21.3 0.9 18 12.7 SSE 22 30 12 16 1009.9 1008.0 0.0
 
Date/Time
WST
Temp
°C
App
Temp
°C
Dew
Point
Rel
Hum
%
Delta-T
°C
Wind Press
QNH
hPa
Press
MSL
hPa
Rain
since 9 am
mm
Dir
 
Spd
km/h
Gust
km/h
Spd
kts
Gust
kts
25/11:30pm 27.8 21.8 1.3 18 12.9 SSE 22 30 12 16 1010.0 1008.1 0.0
25/11:00pm 28.3 22.0 1.7 18 13.1 SSE 24 33 13 18 1010.0 1008.1 0.0
25/10:30pm 28.9 22.7 2.2 18 13.3 SSE 24 33 13 18 1010.1 1008.2 0.0
25/10:00pm 29.8 23.3 2.9 18 13.7 SSE 26 33 14 18 1010.1 1008.2 0.0
25/09:30pm 30.5 24.2 3.5 18 13.9 SSE 26 37 14 20 1010.0 1008.1 0.0
25/09:00pm 31.2 25.3 4.1 18 14.2 SSE 24 33 13 18 1009.7 1007.8 0.0
25/08:30pm 31.9 26.5 4.6 18 14.4 SSE 22 30 12 16 1009.2 1007.4 0.0
25/08:00pm 32.8 27.0 4.6 17 15.0 SSE 24 35 13 19 1009.1 1007.3 0.0
25/07:30pm 33.6 26.8 5.2 17 15.3 SSE 30 39 16 21 1008.7 1006.9 0.0
25/07:00pm 34.5 27.7 5.0 16 16.0 SSE 30 39 16 21 1008.3 1006.5 0.0
25/06:30pm 35.5 28.7 4.9 15 16.6 SSE 30 39 16 21 1008.0 1006.2 0.0
25/06:00pm 36.3 30.0 5.5 15 16.9 SSE 28 39 15 21 1007.8 1006.0 0.0
25/05:30pm 37.0 30.6 5.1 14 17.5 SSE 28 39 15 21 1007.7 1005.9 0.0
25/05:00pm 37.1 31.5 5.2 14 17.5 SSE 24 37 13 20 1007.9 1006.1 0.0
25/04:30pm 37.3 32.1 5.3 14 17.6 S 22 41 12 22 1008.0 1006.2 0.0
25/04:00pm 37.3 32.1 5.3 14 17.6 SE 22 35 12 19 1008.4 1006.6 0.0
25/03:30pm 37.6 32.0 5.6 14 17.7 SSE 24 32 13 17 1008.9 1007.1 0.0
25/03:00pm 37.7 32.7 6.6 15 17.5 SE 22 46 12 25 1009.2 1007.4 0.0
25/02:30pm 36.8 31.9 6.9 16 16.8 SE 22 43 12 23 1009.5 1007.7 0.0
25/02:00pm 36.3 31.3 6.5 16 16.6 SE 22 35 12 19 1009.9 1008.0 0.0
25/01:30pm 35.6 30.7 6.8 17 16.1 ESE 22 32 12 17 1010.2 1008.3 0.0
25/01:00pm 35.3 30.5 7.4 18 15.7 SE 22 30 12 16 1010.7 1008.9 0.0
25/12:30pm 34.4 28.3 6.7 18 15.4 SE 28 41 15 22 1011.1 1009.3 0.0
25/12:00pm 33.8 28.9 7.0 19 14.9 SE 22 33 12 18 1011.5 1009.7 0.0
25/11:30am 33.1 28.6 7.1 20 14.4 ESE 20 32 11 17 1011.9 1010.1 0.0
25/11:00am 31.7 27.1 6.7 21 13.7 ESE 20 33 11 18 1012.4 1010.6 0.0
25/10:30am 30.0 24.3 6.6 23 12.7 SE 26 35 14 19 1012.7 1010.9 0.0
25/10:00am 29.4 24.6 7.3 25 12.1 SE 22 35 12 19 1012.9 1011.1 0.0
25/09:30am 27.7 22.8 7.0 27 11.1 SE 22 35 12 19 1013.2 1011.4 0.0
25/09:00am 26.4 21.2 7.4 30 10.2 SE 24 37 13 20 1013.2 1011.4 0.0
25/08:30am 25.6 20.0 7.2 31 9.8 SE 26 37 14 20 1013.5 1011.6 0.0
25/08:00am 23.9 17.5 7.1 34 8.9 SE 30 37 16 20 1013.6 1011.7 0.0
25/07:30am 22.9 17.4 7.4 37 8.2 SE 26 33 14 18 1013.5 1011.6 0.0
25/07:00am 22.0 16.9 7.8 40 7.5 SE 24 32 13 17 1013.1 1011.3 0.0
25/06:30am 21.1 17.0 7.7 42 7.0 SE 19 30 10 16 1012.8 1011.0 0.0
25/06:00am 20.3 16.4 7.0 42 6.9 SSE 17 22 9 12 1012.6 1010.8 0.0
25/05:30am - - - - - S 13 17 7 9 1012.2 1010.4 0.0
25/05:00am 19.2 16.1 3.8 36 7.4 S 9 13 5 7 1012.0 1010.2 0.0
25/04:30am 20.1 15.8 3.3 33 8.0 S 15 19 8 10 1011.9 1010.1 0.0
25/04:00am 20.1 16.6 3.3 33 8.0 S 11 17 6 9 1011.9 1010.1 0.0
25/03:30am 20.1 17.0 3.8 34 7.9 S 9 13 5 7 1012.0 1010.2 0.0
25/03:00am 20.1 17.2 4.6 36 7.6 S 9 13 5 7 1011.9 1010.1 0.0
25/02:30am 20.4 17.4 6.0 39 7.3 S 11 15 6 8 1012.1 1010.3 0.0
25/02:00am 20.8 18.0 7.1 41 7.1 S 11 15 6 8 1012.2 1010.4 0.0
25/01:30am 20.8 18.3 8.4 45 6.6 S 11 15 6 8 1012.3 1010.5 0.0
25/01:00am 21.3 19.2 8.2 43 6.9 SSW 9 13 5 7 1012.6 1010.8 0.0
25/12:30am 22.1 19.1 7.5 39 7.7 S 13 17 7 9 1012.6 1010.8 0.0
25/12:00am 22.8 19.7 7.4 37 8.1 S 13 17 7 9 1012.6 1010.8 0.0
 
Date/Time
WST
Temp
°C
App
Temp
°C
Dew
Point
Rel
Hum
%
Delta-T
°C
Wind Press
QNH
hPa
Press
MSL
hPa
Rain
since 9 am
mm
Dir
 
Spd
km/h
Gust
km/h
Spd
kts
Gust
kts
24/11:30pm 23.2 20.3 8.1 38 8.1 S 13 17 7 9 1012.7 1010.9 0.0
24/11:00pm 24.1 20.5 8.5 37 8.4 S 17 22 9 12 1012.8 1011.0 0.0
24/10:30pm 25.1 20.9 8.1 34 9.2 S 20 30 11 16 1012.6 1010.8 0.0
24/10:00pm 26.4 21.6 8.8 33 9.7 S 24 32 13 17 1012.5 1010.7 0.0
24/09:30pm 28.6 22.7 -0.5 15 13.8 S 20 30 11 16 1012.3 1010.5 0.0
24/09:00pm 29.4 23.4 -1.9 13 14.6 SSE 20 28 11 15 1012.0 1010.2 0.0
24/08:30pm 30.2 24.1 -2.3 12 15.1 SSE 20 30 11 16 1011.6 1009.8 0.0
24/08:00pm 31.1 24.9 -2.8 11 15.8 SSE 20 28 11 15 1011.4 1009.6 0.0
24/07:30pm 32.3 25.1 -1.9 11 16.3 SSE 26 33 14 18 1011.2 1009.4 0.0
24/07:00pm 33.4 25.8 -2.3 10 17.0 SSE 28 35 15 19 1010.9 1009.1 0.0
24/06:30pm 34.6 26.5 -2.9 9 17.8 SSE 30 41 16 22 1010.6 1008.8 0.0
24/06:00pm 35.7 27.9 -3.6 8 18.6 SSE 28 39 15 21 1010.2 1008.3 0.0
24/05:30pm 36.3 29.7 -3.2 8 18.9 SSE 22 32 12 17 1010.0 1008.1 0.0
24/05:00pm 36.6 30.4 -3.0 8 19.1 SSE 20 35 11 19 1010.0 1008.1 0.0
24/04:30pm 36.9 30.8 -2.7 8 19.2 S 20 28 11 15 1010.1 1008.2 0.0
24/04:00pm 37.3 31.4 -0.9 9 19.1 SSE 20 32 11 17 1010.1 1008.2 0.0
24/03:30pm 37.5 31.6 -0.7 9 19.2 SSE 20 37 11 20 1010.3 1008.4 0.0
24/03:00pm 37.1 31.4 -1.0 9 19.0 SSE 19 33 10 18 1010.3 1008.4 0.0
24/02:30pm 37.3 31.2 -2.4 8 19.4 SSE 20 35 11 19 1010.6 1008.8 0.0
24/02:00pm 36.9 30.6 -1.1 9 18.9 S 22 35 12 19 1010.9 1009.1 0.0

Other Formats:

Comma delimited format used in spreadsheet applications
http://www.bom.gov.au/fwo/IDW60801/IDW60801.94417.axf

JavaScript Object Notation format (JSON) in row-major order
http://www.bom.gov.au/fwo/IDW60801/IDW60801.94417.json